sensor_id;sensor_type;location;lat;lon;timestamp;temperature;humidity
42037;DHT22;30340;52.004;5.908;2023-07-31T00:00:12;16.70;93.60
42037;DHT22;30340;52.004;5.908;2023-07-31T00:02:38;16.70;93.80
42037;DHT22;30340;52.004;5.908;2023-07-31T00:05:04;16.70;93.80
42037;DHT22;30340;52.004;5.908;2023-07-31T00:07:31;16.80;93.70
42037;DHT22;30340;52.004;5.908;2023-07-31T00:09:57;16.80;93.70
42037;DHT22;30340;52.004;5.908;2023-07-31T00:12:23;16.80;93.70
42037;DHT22;30340;52.004;5.908;2023-07-31T00:14:49;16.80;93.70
42037;DHT22;30340;52.004;5.908;2023-07-31T00:17:16;16.80;94.10
42037;DHT22;30340;52.004;5.908;2023-07-31T00:19:42;16.80;93.80
42037;DHT22;30340;52.004;5.908;2023-07-31T00:22:07;16.80;93.80
42037;DHT22;30340;52.004;5.908;2023-07-31T00:24:33;16.80;93.90
42037;DHT22;30340;52.004;5.908;2023-07-31T00:26:58;16.80;94.00
42037;DHT22;30340;52.004;5.908;2023-07-31T00:29:24;16.70;94.10
42037;DHT22;30340;52.004;5.908;2023-07-31T00:31:49;16.70;94.20
42037;DHT22;30340;52.004;5.908;2023-07-31T00:34:15;16.80;94.20
42037;DHT22;30340;52.004;5.908;2023-07-31T00:36:40;16.70;94.40
42037;DHT22;30340;52.004;5.908;2023-07-31T00:39:06;16.70;94.50
42037;DHT22;30340;52.004;5.908;2023-07-31T00:41:32;16.70;94.60
42037;DHT22;30340;52.004;5.908;2023-07-31T00:43:57;16.70;94.70
42037;DHT22;30340;52.004;5.908;2023-07-31T00:46:23;16.80;94.70
42037;DHT22;30340;52.004;5.908;2023-07-31T00:48:49;16.90;94.70
42037;DHT22;30340;52.004;5.908;2023-07-31T00:51:14;16.90;94.60
42037;DHT22;30340;52.004;5.908;2023-07-31T00:53:40;16.90;94.70
42037;DHT22;30340;52.004;5.908;2023-07-31T00:56:06;17.00;94.70
42037;DHT22;30340;52.004;5.908;2023-07-31T00:58:33;17.00;94.70
42037;DHT22;30340;52.004;5.908;2023-07-31T01:00:58;17.00;94.70
42037;DHT22;30340;52.004;5.908;2023-07-31T01:03:24;17.10;94.90
42037;DHT22;30340;52.004;5.908;2023-07-31T01:09:02;17.20;94.90
42037;DHT22;30340;52.004;5.908;2023-07-31T01:11:37;17.20;95.20
42037;DHT22;30340;52.004;5.908;2023-07-31T01:14:04;17.30;94.90
42037;DHT22;30340;52.004;5.908;2023-07-31T01:16:30;17.30;95.00
42037;DHT22;30340;52.004;5.908;2023-07-31T01:18:55;17.30;95.00
42037;DHT22;30340;52.004;5.908;2023-07-31T01:24:10;17.50;95.20
42037;DHT22;30340;52.004;5.908;2023-07-31T01:26:45;17.50;95.20
42037;DHT22;30340;52.004;5.908;2023-07-31T01:29:38;17.50;95.30
42037;DHT22;30340;52.004;5.908;2023-07-31T01:32:09;17.60;95.40
42037;DHT22;30340;52.004;5.908;2023-07-31T01:34:36;17.60;95.50
42037;DHT22;30340;52.004;5.908;2023-07-31T01:37:02;17.60;95.50
42037;DHT22;30340;52.004;5.908;2023-07-31T01:39:28;17.60;95.50
42037;DHT22;30340;52.004;5.908;2023-07-31T01:41:54;17.60;95.60
42037;DHT22;30340;52.004;5.908;2023-07-31T01:44:19;17.60;95.60
42037;DHT22;30340;52.004;5.908;2023-07-31T01:46:45;17.70;95.70
42037;DHT22;30340;52.004;5.908;2023-07-31T01:49:11;17.60;95.70
42037;DHT22;30340;52.004;5.908;2023-07-31T01:51:36;17.60;95.60
42037;DHT22;30340;52.004;5.908;2023-07-31T01:54:02;17.60;95.60
42037;DHT22;30340;52.004;5.908;2023-07-31T01:56:28;17.70;95.70
42037;DHT22;30340;52.004;5.908;2023-07-31T01:58:54;17.70;95.60
42037;DHT22;30340;52.004;5.908;2023-07-31T02:01:20;17.70;95.60
42037;DHT22;30340;52.004;5.908;2023-07-31T02:03:45;17.70;95.50
42037;DHT22;30340;52.004;5.908;2023-07-31T02:06:11;17.80;95.50
42037;DHT22;30340;52.004;5.908;2023-07-31T02:08:36;17.70;95.40
42037;DHT22;30340;52.004;5.908;2023-07-31T02:11:02;17.70;95.40
42037;DHT22;30340;52.004;5.908;2023-07-31T02:13:28;17.70;95.50
42037;DHT22;30340;52.004;5.908;2023-07-31T02:15:53;17.70;95.50
42037;DHT22;30340;52.004;5.908;2023-07-31T02:18:19;17.60;95.60
42037;DHT22;30340;52.004;5.908;2023-07-31T02:20:49;17.60;95.60
42037;DHT22;30340;52.004;5.908;2023-07-31T02:23:15;17.60;95.60
42037;DHT22;30340;52.004;5.908;2023-07-31T02:25:40;17.60;95.60
42037;DHT22;30340;52.004;5.908;2023-07-31T02:28:06;17.60;95.70
42037;DHT22;30340;52.004;5.908;2023-07-31T02:30:31;17.60;95.60
42037;DHT22;30340;52.004;5.908;2023-07-31T02:32:57;17.60;95.70
42037;DHT22;30340;52.004;5.908;2023-07-31T02:35:22;17.60;95.80
42037;DHT22;30340;52.004;5.908;2023-07-31T02:37:48;17.60;95.90
42037;DHT22;30340;52.004;5.908;2023-07-31T02:40:14;17.50;95.90
42037;DHT22;30340;52.004;5.908;2023-07-31T02:42:39;17.50;95.90
42037;DHT22;30340;52.004;5.908;2023-07-31T02:45:05;17.50;95.90
42037;DHT22;30340;52.004;5.908;2023-07-31T02:47:31;17.50;95.80
42037;DHT22;30340;52.004;5.908;2023-07-31T02:49:57;17.60;95.80
42037;DHT22;30340;52.004;5.908;2023-07-31T02:52:22;17.60;95.80
42037;DHT22;30340;52.004;5.908;2023-07-31T02:54:48;17.60;95.90
42037;DHT22;30340;52.004;5.908;2023-07-31T02:57:14;17.60;95.90
42037;DHT22;30340;52.004;5.908;2023-07-31T02:59:39;17.60;95.90
42037;DHT22;30340;52.004;5.908;2023-07-31T03:02:05;17.60;95.90
42037;DHT22;30340;52.004;5.908;2023-07-31T03:04:31;17.60;95.80
42037;DHT22;30340;52.004;5.908;2023-07-31T03:06:56;17.60;95.90
42037;DHT22;30340;52.004;5.908;2023-07-31T03:09:22;17.60;95.90
42037;DHT22;30340;52.004;5.908;2023-07-31T03:11:47;17.60;95.90
42037;DHT22;30340;52.004;5.908;2023-07-31T03:14:13;17.60;95.80
42037;DHT22;30340;52.004;5.908;2023-07-31T03:16:38;17.60;96.00
42037;DHT22;30340;52.004;5.908;2023-07-31T03:19:04;17.60;95.70
42037;DHT22;30340;52.004;5.908;2023-07-31T03:21:30;17.60;95.70
42037;DHT22;30340;52.004;5.908;2023-07-31T03:23:55;17.60;95.60
42037;DHT22;30340;52.004;5.908;2023-07-31T03:26:21;17.60;95.60
42037;DHT22;30340;52.004;5.908;2023-07-31T03:28:47;17.60;95.50
42037;DHT22;30340;52.004;5.908;2023-07-31T03:31:12;17.60;95.50
42037;DHT22;30340;52.004;5.908;2023-07-31T03:33:38;17.60;95.40
42037;DHT22;30340;52.004;5.908;2023-07-31T03:36:04;17.70;95.30
42037;DHT22;30340;52.004;5.908;2023-07-31T03:38:29;17.60;95.20
42037;DHT22;30340;52.004;5.908;2023-07-31T03:40:55;17.60;95.40
42037;DHT22;30340;52.004;5.908;2023-07-31T03:43:21;17.60;95.10
42037;DHT22;30340;52.004;5.908;2023-07-31T03:45:46;17.60;95.00
42037;DHT22;30340;52.004;5.908;2023-07-31T03:48:13;17.60;95.00
42037;DHT22;30340;52.004;5.908;2023-07-31T03:50:39;17.60;94.90
42037;DHT22;30340;52.004;5.908;2023-07-31T03:53:04;17.60;94.80
42037;DHT22;30340;52.004;5.908;2023-07-31T03:55:30;17.60;94.80
42037;DHT22;30340;52.004;5.908;2023-07-31T03:57:55;17.60;94.70
42037;DHT22;30340;52.004;5.908;2023-07-31T04:00:21;17.60;94.70
42037;DHT22;30340;52.004;5.908;2023-07-31T04:02:47;17.50;94.60
42037;DHT22;30340;52.004;5.908;2023-07-31T04:05:13;17.60;94.60
42037;DHT22;30340;52.004;5.908;2023-07-31T04:07:38;17.50;94.50
42037;DHT22;30340;52.004;5.908;2023-07-31T04:10:04;17.50;94.50
42037;DHT22;30340;52.004;5.908;2023-07-31T04:12:30;17.50;94.50
42037;DHT22;30340;52.004;5.908;2023-07-31T04:14:55;17.50;94.40
42037;DHT22;30340;52.004;5.908;2023-07-31T04:17:21;17.50;94.40
42037;DHT22;30340;52.004;5.908;2023-07-31T04:19:46;17.50;94.30
42037;DHT22;30340;52.004;5.908;2023-07-31T04:22:12;17.50;94.20
42037;DHT22;30340;52.004;5.908;2023-07-31T04:24:37;17.50;94.20
42037;DHT22;30340;52.004;5.908;2023-07-31T04:27:03;17.50;94.10
42037;DHT22;30340;52.004;5.908;2023-07-31T04:29:29;17.50;94.10
42037;DHT22;30340;52.004;5.908;2023-07-31T04:31:54;17.50;94.10
42037;DHT22;30340;52.004;5.908;2023-07-31T04:34:20;17.50;94.00
42037;DHT22;30340;52.004;5.908;2023-07-31T04:36:45;17.50;93.90
42037;DHT22;30340;52.004;5.908;2023-07-31T04:39:11;17.50;93.90
42037;DHT22;30340;52.004;5.908;2023-07-31T04:41:36;17.50;93.90
42037;DHT22;30340;52.004;5.908;2023-07-31T04:44:02;17.50;93.80
42037;DHT22;30340;52.004;5.908;2023-07-31T04:46:29;17.50;93.90
42037;DHT22;30340;52.004;5.908;2023-07-31T04:48:54;17.50;93.80
42037;DHT22;30340;52.004;5.908;2023-07-31T04:51:20;17.50;93.80
42037;DHT22;30340;52.004;5.908;2023-07-31T04:53:46;17.60;93.70
42037;DHT22;30340;52.004;5.908;2023-07-31T04:56:12;17.60;93.60
42037;DHT22;30340;52.004;5.908;2023-07-31T04:58:38;17.60;93.60
42037;DHT22;30340;52.004;5.908;2023-07-31T05:01:03;17.60;93.50
42037;DHT22;30340;52.004;5.908;2023-07-31T05:03:29;17.60;93.50
42037;DHT22;30340;52.004;5.908;2023-07-31T05:05:54;17.60;93.50
42037;DHT22;30340;52.004;5.908;2023-07-31T05:08:20;17.60;93.40
42037;DHT22;30340;52.004;5.908;2023-07-31T05:10:45;17.60;93.40
42037;DHT22;30340;52.004;5.908;2023-07-31T05:13:11;17.60;93.40
42037;DHT22;30340;52.004;5.908;2023-07-31T05:15:37;17.60;93.30
42037;DHT22;30340;52.004;5.908;2023-07-31T05:18:02;17.60;93.30
42037;DHT22;30340;52.004;5.908;2023-07-31T05:20:28;17.50;93.30
42037;DHT22;30340;52.004;5.908;2023-07-31T05:22:53;17.60;93.40
42037;DHT22;30340;52.004;5.908;2023-07-31T05:25:19;17.50;93.40
42037;DHT22;30340;52.004;5.908;2023-07-31T05:27:45;17.50;93.50
42037;DHT22;30340;52.004;5.908;2023-07-31T05:30:10;17.50;93.50
42037;DHT22;30340;52.004;5.908;2023-07-31T05:32:36;17.60;93.60
42037;DHT22;30340;52.004;5.908;2023-07-31T05:35:01;17.50;93.60
42037;DHT22;30340;52.004;5.908;2023-07-31T05:37:27;17.50;93.60
42037;DHT22;30340;52.004;5.908;2023-07-31T05:39:52;17.50;93.70
42037;DHT22;30340;52.004;5.908;2023-07-31T05:42:18;17.40;93.80
42037;DHT22;30340;52.004;5.908;2023-07-31T05:44:44;17.40;93.90
42037;DHT22;30340;52.004;5.908;2023-07-31T05:47:09;17.40;94.00
42037;DHT22;30340;52.004;5.908;2023-07-31T05:49:35;17.40;94.00
42037;DHT22;30340;52.004;5.908;2023-07-31T05:52:00;17.40;94.20
42037;DHT22;30340;52.004;5.908;2023-07-31T05:54:26;17.30;94.30
42037;DHT22;30340;52.004;5.908;2023-07-31T05:56:52;17.30;94.40
42037;DHT22;30340;52.004;5.908;2023-07-31T05:59:17;17.30;94.50
42037;DHT22;30340;52.004;5.908;2023-07-31T06:01:43;17.30;94.60
42037;DHT22;30340;52.004;5.908;2023-07-31T06:04:08;17.30;94.60
42037;DHT22;30340;52.004;5.908;2023-07-31T06:06:34;17.30;94.70
42037;DHT22;30340;52.004;5.908;2023-07-31T06:09:00;17.30;94.80
42037;DHT22;30340;52.004;5.908;2023-07-31T06:11:26;17.30;95.00
42037;DHT22;30340;52.004;5.908;2023-07-31T06:13:51;17.30;95.10
42037;DHT22;30340;52.004;5.908;2023-07-31T06:16:17;17.30;95.10
42037;DHT22;30340;52.004;5.908;2023-07-31T06:18:43;17.30;95.30
42037;DHT22;30340;52.004;5.908;2023-07-31T06:21:09;17.30;95.40
42037;DHT22;30340;52.004;5.908;2023-07-31T06:23:35;17.30;95.50
42037;DHT22;30340;52.004;5.908;2023-07-31T06:26:01;17.30;95.60
42037;DHT22;30340;52.004;5.908;2023-07-31T06:28:30;17.40;95.70
42037;DHT22;30340;52.004;5.908;2023-07-31T06:30:57;17.30;95.80
42037;DHT22;30340;52.004;5.908;2023-07-31T06:33:23;17.30;95.90
42037;DHT22;30340;52.004;5.908;2023-07-31T06:35:48;17.40;96.00
42037;DHT22;30340;52.004;5.908;2023-07-31T06:38:14;17.40;96.10
42037;DHT22;30340;52.004;5.908;2023-07-31T06:40:39;17.40;96.20
42037;DHT22;30340;52.004;5.908;2023-07-31T06:43:05;17.40;96.30
42037;DHT22;30340;52.004;5.908;2023-07-31T06:45:35;17.40;96.40
42037;DHT22;30340;52.004;5.908;2023-07-31T06:48:01;17.40;96.40
42037;DHT22;30340;52.004;5.908;2023-07-31T06:50:28;17.50;96.50
42037;DHT22;30340;52.004;5.908;2023-07-31T06:52:54;17.40;96.70
42037;DHT22;30340;52.004;5.908;2023-07-31T06:55:21;17.40;96.70
42037;DHT22;30340;52.004;5.908;2023-07-31T06:57:49;17.50;96.80
42037;DHT22;30340;52.004;5.908;2023-07-31T07:00:15;17.50;96.80
42037;DHT22;30340;52.004;5.908;2023-07-31T07:02:41;17.50;96.80
42037;DHT22;30340;52.004;5.908;2023-07-31T07:05:07;17.60;96.80
42037;DHT22;30340;52.004;5.908;2023-07-31T07:07:33;17.60;96.80
42037;DHT22;30340;52.004;5.908;2023-07-31T07:09:59;17.60;96.80
42037;DHT22;30340;52.004;5.908;2023-07-31T07:12:32;17.60;96.80
42037;DHT22;30340;52.004;5.908;2023-07-31T07:14:59;17.60;96.90
42037;DHT22;30340;52.004;5.908;2023-07-31T07:17:25;17.60;96.90
42037;DHT22;30340;52.004;5.908;2023-07-31T07:19:51;17.60;97.00
42037;DHT22;30340;52.004;5.908;2023-07-31T07:22:17;17.70;97.00
42037;DHT22;30340;52.004;5.908;2023-07-31T07:24:43;17.70;97.10
42037;DHT22;30340;52.004;5.908;2023-07-31T07:27:09;17.70;97.10
42037;DHT22;30340;52.004;5.908;2023-07-31T07:29:34;17.90;97.10
42037;DHT22;30340;52.004;5.908;2023-07-31T07:32:00;17.90;97.00
42037;DHT22;30340;52.004;5.908;2023-07-31T07:34:27;17.90;96.90
42037;DHT22;30340;52.004;5.908;2023-07-31T07:36:53;17.90;96.90
42037;DHT22;30340;52.004;5.908;2023-07-31T07:39:19;17.90;96.90
42037;DHT22;30340;52.004;5.908;2023-07-31T07:41:46;17.90;97.00
42037;DHT22;30340;52.004;5.908;2023-07-31T07:44:12;17.90;96.90
42037;DHT22;30340;52.004;5.908;2023-07-31T07:46:38;17.90;96.90
42037;DHT22;30340;52.004;5.908;2023-07-31T07:49:03;17.90;96.90
42037;DHT22;30340;52.004;5.908;2023-07-31T07:51:29;17.90;97.00
42037;DHT22;30340;52.004;5.908;2023-07-31T07:53:57;17.90;97.10
42037;DHT22;30340;52.004;5.908;2023-07-31T07:56:23;17.90;97.10
42037;DHT22;30340;52.004;5.908;2023-07-31T07:58:50;17.90;97.20
42037;DHT22;30340;52.004;5.908;2023-07-31T08:01:16;17.90;97.20
42037;DHT22;30340;52.004;5.908;2023-07-31T08:03:41;17.90;97.20
42037;DHT22;30340;52.004;5.908;2023-07-31T08:06:07;18.00;97.20
42037;DHT22;30340;52.004;5.908;2023-07-31T08:08:35;17.90;97.20
42037;DHT22;30340;52.004;5.908;2023-07-31T08:11:00;18.00;97.20
42037;DHT22;30340;52.004;5.908;2023-07-31T08:13:26;17.90;97.30
42037;DHT22;30340;52.004;5.908;2023-07-31T08:15:52;18.00;97.30
42037;DHT22;30340;52.004;5.908;2023-07-31T08:18:17;18.00;97.30
42037;DHT22;30340;52.004;5.908;2023-07-31T08:20:43;18.00;97.40
42037;DHT22;30340;52.004;5.908;2023-07-31T08:23:09;18.00;97.50
42037;DHT22;30340;52.004;5.908;2023-07-31T08:25:37;18.00;97.40
42037;DHT22;30340;52.004;5.908;2023-07-31T08:28:04;18.10;97.40
42037;DHT22;30340;52.004;5.908;2023-07-31T08:30:30;18.10;97.40
42037;DHT22;30340;52.004;5.908;2023-07-31T08:32:55;18.10;97.40
42037;DHT22;30340;52.004;5.908;2023-07-31T08:35:21;18.10;97.30
42037;DHT22;30340;52.004;5.908;2023-07-31T08:37:47;18.20;97.40
42037;DHT22;30340;52.004;5.908;2023-07-31T08:40:12;18.20;97.40
42037;DHT22;30340;52.004;5.908;2023-07-31T08:42:45;18.20;97.40
42037;DHT22;30340;52.004;5.908;2023-07-31T08:45:17;18.20;97.40
42037;DHT22;30340;52.004;5.908;2023-07-31T08:47:51;18.20;97.30
42037;DHT22;30340;52.004;5.908;2023-07-31T08:50:19;18.30;97.40
42037;DHT22;30340;52.004;5.908;2023-07-31T08:52:46;18.30;97.40
42037;DHT22;30340;52.004;5.908;2023-07-31T08:55:13;18.20;97.70
42037;DHT22;30340;52.004;5.908;2023-07-31T08:57:39;18.30;97.70
42037;DHT22;30340;52.004;5.908;2023-07-31T09:00:06;18.40;97.60
42037;DHT22;30340;52.004;5.908;2023-07-31T09:02:41;18.40;97.50
42037;DHT22;30340;52.004;5.908;2023-07-31T09:05:09;18.40;97.60
42037;DHT22;30340;52.004;5.908;2023-07-31T09:07:36;18.40;97.40
42037;DHT22;30340;52.004;5.908;2023-07-31T09:10:03;18.40;97.40
42037;DHT22;30340;52.004;5.908;2023-07-31T09:12:28;18.50;97.40
42037;DHT22;30340;52.004;5.908;2023-07-31T09:14:55;18.40;97.30
42037;DHT22;30340;52.004;5.908;2023-07-31T09:17:35;18.40;97.40
42037;DHT22;30340;52.004;5.908;2023-07-31T09:20:19;18.40;97.40
42037;DHT22;30340;52.004;5.908;2023-07-31T09:22:46;18.40;97.50
42037;DHT22;30340;52.004;5.908;2023-07-31T09:25:20;18.40;97.50
42037;DHT22;30340;52.004;5.908;2023-07-31T09:27:58;18.30;97.50
42037;DHT22;30340;52.004;5.908;2023-07-31T09:30:24;18.40;97.50
42037;DHT22;30340;52.004;5.908;2023-07-31T09:32:52;18.40;97.60
42037;DHT22;30340;52.004;5.908;2023-07-31T09:35:35;18.40;97.60
42037;DHT22;30340;52.004;5.908;2023-07-31T09:38:11;18.40;97.60
42037;DHT22;30340;52.004;5.908;2023-07-31T09:40:38;18.40;97.80
42037;DHT22;30340;52.004;5.908;2023-07-31T09:43:06;18.30;97.70
42037;DHT22;30340;52.004;5.908;2023-07-31T09:45:35;18.30;97.70
42037;DHT22;30340;52.004;5.908;2023-07-31T09:48:07;18.40;97.80
42037;DHT22;30340;52.004;5.908;2023-07-31T09:50:37;18.40;97.70
42037;DHT22;30340;52.004;5.908;2023-07-31T09:53:04;18.40;97.60
42037;DHT22;30340;52.004;5.908;2023-07-31T09:55:29;18.40;97.60
42037;DHT22;30340;52.004;5.908;2023-07-31T09:57:57;18.40;97.60
42037;DHT22;30340;52.004;5.908;2023-07-31T10:00:23;18.50;97.60
42037;DHT22;30340;52.004;5.908;2023-07-31T10:02:51;18.50;97.50
42037;DHT22;30340;52.004;5.908;2023-07-31T10:05:17;18.60;97.40
42037;DHT22;30340;52.004;5.908;2023-07-31T10:07:52;18.70;97.30
42037;DHT22;30340;52.004;5.908;2023-07-31T10:10:20;18.70;97.20
42037;DHT22;30340;52.004;5.908;2023-07-31T10:12:48;18.70;97.10
42037;DHT22;30340;52.004;5.908;2023-07-31T10:15:15;18.70;97.10
42037;DHT22;30340;52.004;5.908;2023-07-31T10:17:41;18.70;97.10
42037;DHT22;30340;52.004;5.908;2023-07-31T10:20:07;18.70;97.10
42037;DHT22;30340;52.004;5.908;2023-07-31T10:22:34;18.80;97.00
42037;DHT22;30340;52.004;5.908;2023-07-31T10:25:00;18.80;97.00
42037;DHT22;30340;52.004;5.908;2023-07-31T10:27:26;18.80;96.90
42037;DHT22;30340;52.004;5.908;2023-07-31T10:29:54;18.90;96.80
42037;DHT22;30340;52.004;5.908;2023-07-31T10:32:20;18.90;96.80
42037;DHT22;30340;52.004;5.908;2023-07-31T10:34:48;18.90;96.60
42037;DHT22;30340;52.004;5.908;2023-07-31T10:37:37;18.90;96.60
42037;DHT22;30340;52.004;5.908;2023-07-31T10:40:15;18.90;96.70
42037;DHT22;30340;52.004;5.908;2023-07-31T10:42:49;19.00;96.60
42037;DHT22;30340;52.004;5.908;2023-07-31T10:45:30;19.00;96.60
42037;DHT22;30340;52.004;5.908;2023-07-31T10:48:00;19.00;96.60
42037;DHT22;30340;52.004;5.908;2023-07-31T10:50:27;19.00;96.60
42037;DHT22;30340;52.004;5.908;2023-07-31T10:52:57;19.00;96.60
42037;DHT22;30340;52.004;5.908;2023-07-31T10:55:40;19.10;96.60
42037;DHT22;30340;52.004;5.908;2023-07-31T10:58:12;19.10;96.50
42037;DHT22;30340;52.004;5.908;2023-07-31T11:00:40;19.20;96.40
42037;DHT22;30340;52.004;5.908;2023-07-31T11:03:19;19.10;96.30
42037;DHT22;30340;52.004;5.908;2023-07-31T11:06:00;19.10;96.30
42037;DHT22;30340;52.004;5.908;2023-07-31T11:08:29;19.20;96.30
42037;DHT22;30340;52.004;5.908;2023-07-31T11:13:49;19.20;96.40
42037;DHT22;30340;52.004;5.908;2023-07-31T11:16:16;19.20;96.30
42037;DHT22;30340;52.004;5.908;2023-07-31T11:18:43;19.20;96.30
42037;DHT22;30340;52.004;5.908;2023-07-31T11:21:14;19.30;96.30
42037;DHT22;30340;52.004;5.908;2023-07-31T11:23:39;19.30;96.40
42037;DHT22;30340;52.004;5.908;2023-07-31T11:26:06;19.30;96.30
42037;DHT22;30340;52.004;5.908;2023-07-31T11:28:33;19.40;96.30
42037;DHT22;30340;52.004;5.908;2023-07-31T11:31:00;19.30;96.30
42037;DHT22;30340;52.004;5.908;2023-07-31T11:33:26;19.30;96.30
42037;DHT22;30340;52.004;5.908;2023-07-31T11:35:51;19.40;96.20
42037;DHT22;30340;52.004;5.908;2023-07-31T11:38:31;19.30;96.20
42037;DHT22;30340;52.004;5.908;2023-07-31T11:41:00;19.30;96.20
42037;DHT22;30340;52.004;5.908;2023-07-31T11:43:28;19.30;96.20
42037;DHT22;30340;52.004;5.908;2023-07-31T11:45:58;19.30;96.20
42037;DHT22;30340;52.004;5.908;2023-07-31T11:48:29;19.30;96.30
42037;DHT22;30340;52.004;5.908;2023-07-31T11:51:00;19.30;96.30
42037;DHT22;30340;52.004;5.908;2023-07-31T11:56:04;19.40;96.30
42037;DHT22;30340;52.004;5.908;2023-07-31T11:58:31;19.40;96.20
42037;DHT22;30340;52.004;5.908;2023-07-31T12:00:58;19.40;96.20
42037;DHT22;30340;52.004;5.908;2023-07-31T12:03:25;19.40;96.20
42037;DHT22;30340;52.004;5.908;2023-07-31T12:05:50;19.40;96.20
42037;DHT22;30340;52.004;5.908;2023-07-31T12:08:16;19.40;96.20
42037;DHT22;30340;52.004;5.908;2023-07-31T12:10:42;19.50;96.20
42037;DHT22;30340;52.004;5.908;2023-07-31T12:13:11;19.50;96.10
42037;DHT22;30340;52.004;5.908;2023-07-31T12:15:42;19.60;96.10
42037;DHT22;30340;52.004;5.908;2023-07-31T12:18:12;19.50;96.00
42037;DHT22;30340;52.004;5.908;2023-07-31T12:20:42;19.60;96.00
42037;DHT22;30340;52.004;5.908;2023-07-31T12:23:16;19.60;95.90
42037;DHT22;30340;52.004;5.908;2023-07-31T12:25:42;19.60;95.80
42037;DHT22;30340;52.004;5.908;2023-07-31T12:28:08;19.60;95.70
42037;DHT22;30340;52.004;5.908;2023-07-31T12:30:38;19.60;95.80
42037;DHT22;30340;52.004;5.908;2023-07-31T12:33:05;19.60;95.80
42037;DHT22;30340;52.004;5.908;2023-07-31T12:35:38;19.60;95.70
42037;DHT22;30340;52.004;5.908;2023-07-31T12:38:05;19.60;95.70
42037;DHT22;30340;52.004;5.908;2023-07-31T12:40:31;19.60;95.70
42037;DHT22;30340;52.004;5.908;2023-07-31T12:42:56;19.60;95.70
42037;DHT22;30340;52.004;5.908;2023-07-31T12:45:22;19.50;95.80
42037;DHT22;30340;52.004;5.908;2023-07-31T12:47:48;19.60;96.10
42037;DHT22;30340;52.004;5.908;2023-07-31T12:50:14;19.50;95.90
42037;DHT22;30340;52.004;5.908;2023-07-31T12:52:40;19.50;95.90
42037;DHT22;30340;52.004;5.908;2023-07-31T12:55:05;19.50;95.90
42037;DHT22;30340;52.004;5.908;2023-07-31T12:57:31;19.50;96.00
42037;DHT22;30340;52.004;5.908;2023-07-31T12:59:57;19.40;96.00
42037;DHT22;30340;52.004;5.908;2023-07-31T13:02:22;19.40;96.10
42037;DHT22;30340;52.004;5.908;2023-07-31T13:04:49;19.50;96.20
42037;DHT22;30340;52.004;5.908;2023-07-31T13:07:15;19.50;96.20
42037;DHT22;30340;52.004;5.908;2023-07-31T13:09:40;19.50;96.20
42037;DHT22;30340;52.004;5.908;2023-07-31T13:12:06;19.50;96.20
42037;DHT22;30340;52.004;5.908;2023-07-31T13:14:32;19.50;96.30
42037;DHT22;30340;52.004;5.908;2023-07-31T13:16:57;19.50;96.20
42037;DHT22;30340;52.004;5.908;2023-07-31T13:19:23;19.50;96.20
42037;DHT22;30340;52.004;5.908;2023-07-31T13:21:49;19.60;96.30
42037;DHT22;30340;52.004;5.908;2023-07-31T13:24:14;19.60;96.20
42037;DHT22;30340;52.004;5.908;2023-07-31T13:26:40;19.60;96.10
42037;DHT22;30340;52.004;5.908;2023-07-31T13:29:05;19.60;96.20
42037;DHT22;30340;52.004;5.908;2023-07-31T13:31:31;19.60;96.10
42037;DHT22;30340;52.004;5.908;2023-07-31T13:33:57;19.60;96.10
42037;DHT22;30340;52.004;5.908;2023-07-31T13:36:23;19.70;96.10
42037;DHT22;30340;52.004;5.908;2023-07-31T13:38:48;19.70;96.00
42037;DHT22;30340;52.004;5.908;2023-07-31T13:41:14;19.80;96.00
42037;DHT22;30340;52.004;5.908;2023-07-31T13:43:39;19.80;95.90
42037;DHT22;30340;52.004;5.908;2023-07-31T13:46:06;19.80;95.80
42037;DHT22;30340;52.004;5.908;2023-07-31T13:48:35;19.80;95.80
42037;DHT22;30340;52.004;5.908;2023-07-31T13:51:01;19.80;95.80
42037;DHT22;30340;52.004;5.908;2023-07-31T13:53:27;19.70;95.70
42037;DHT22;30340;52.004;5.908;2023-07-31T13:55:52;19.60;95.80
42037;DHT22;30340;52.004;5.908;2023-07-31T13:58:18;19.60;95.90
42037;DHT22;30340;52.004;5.908;2023-07-31T14:00:43;19.60;96.00
42037;DHT22;30340;52.004;5.908;2023-07-31T14:03:09;19.60;96.00
42037;DHT22;30340;52.004;5.908;2023-07-31T14:05:35;19.60;96.00
42037;DHT22;30340;52.004;5.908;2023-07-31T14:08:00;19.60;96.00
42037;DHT22;30340;52.004;5.908;2023-07-31T14:10:26;19.60;96.10
42037;DHT22;30340;52.004;5.908;2023-07-31T14:12:51;19.60;96.20
42037;DHT22;30340;52.004;5.908;2023-07-31T14:15:17;19.50;96.10
42037;DHT22;30340;52.004;5.908;2023-07-31T14:17:43;19.50;96.20
42037;DHT22;30340;52.004;5.908;2023-07-31T14:20:09;19.60;96.30
42037;DHT22;30340;52.004;5.908;2023-07-31T14:22:35;19.50;96.30
42037;DHT22;30340;52.004;5.908;2023-07-31T14:25:01;19.50;96.30
42037;DHT22;30340;52.004;5.908;2023-07-31T14:27:26;19.50;96.40
42037;DHT22;30340;52.004;5.908;2023-07-31T14:29:52;19.50;96.50
42037;DHT22;30340;52.004;5.908;2023-07-31T14:32:17;19.50;96.60
42037;DHT22;30340;52.004;5.908;2023-07-31T14:34:43;19.50;96.70
42037;DHT22;30340;52.004;5.908;2023-07-31T14:37:10;19.60;96.60
42037;DHT22;30340;52.004;5.908;2023-07-31T14:39:35;19.50;96.60
42037;DHT22;30340;52.004;5.908;2023-07-31T14:42:01;19.50;96.60
42037;DHT22;30340;52.004;5.908;2023-07-31T14:44:27;19.50;96.60
42037;DHT22;30340;52.004;5.908;2023-07-31T14:46:53;19.50;96.70
42037;DHT22;30340;52.004;5.908;2023-07-31T14:49:18;19.50;96.80
42037;DHT22;30340;52.004;5.908;2023-07-31T14:51:44;19.50;96.80
42037;DHT22;30340;52.004;5.908;2023-07-31T14:54:09;19.40;96.90
42037;DHT22;30340;52.004;5.908;2023-07-31T14:56:35;19.40;97.00
42037;DHT22;30340;52.004;5.908;2023-07-31T14:59:00;19.30;97.10
42037;DHT22;30340;52.004;5.908;2023-07-31T15:01:26;19.30;97.20
42037;DHT22;30340;52.004;5.908;2023-07-31T15:03:51;19.30;97.20
42037;DHT22;30340;52.004;5.908;2023-07-31T15:06:17;19.30;97.30
42037;DHT22;30340;52.004;5.908;2023-07-31T15:08:42;19.30;97.40
42037;DHT22;30340;52.004;5.908;2023-07-31T15:11:09;19.30;97.40
42037;DHT22;30340;52.004;5.908;2023-07-31T15:13:35;19.30;97.40
42037;DHT22;30340;52.004;5.908;2023-07-31T15:16:00;19.30;97.50
42037;DHT22;30340;52.004;5.908;2023-07-31T15:18:26;19.30;97.40
42037;DHT22;30340;52.004;5.908;2023-07-31T15:20:53;19.40;97.40
42037;DHT22;30340;52.004;5.908;2023-07-31T15:23:18;19.40;97.40
42037;DHT22;30340;52.004;5.908;2023-07-31T15:25:44;19.40;97.40
42037;DHT22;30340;52.004;5.908;2023-07-31T15:28:09;19.30;97.30
42037;DHT22;30340;52.004;5.908;2023-07-31T15:30:38;19.30;97.40
42037;DHT22;30340;52.004;5.908;2023-07-31T15:33:04;19.30;97.50
42037;DHT22;30340;52.004;5.908;2023-07-31T15:35:29;19.30;97.40
42037;DHT22;30340;52.004;5.908;2023-07-31T15:37:55;19.20;97.50